»·PEaware :: FDX419 KLAX-KSJC

FDX419 :: KLAX-KSJC

FLIGHT INFORMATION

Flight Status: Arrived
Operator:
Federal Express
More flights by this operator :: More flights under this callsign
Pilot: Nils Z. (23708)
Aircraft: BOEING 757-200
(B752)
More flights by this aircraft type
Origin: KLAX Los Angeles Intl
United States
Destination: KSJC Mineta San Jose Intl
United States
More flights between these airports :: More routes between these airports
Route: SUMMR1 SCTRR TROXX SILCN4
File this flight plan on PilotEdge
Remarks: RMK / SIMBRIEF
Altitude:
(Current/Filed)
34,000ft
Speed:
(Current/Filed)
458kts
Departed: 26-Feb-19 01:31 PM
Arrived: 26-Feb-19 02:35 PM
Distance/Time
Traveled:
267nm/1:03
Distance/Time
To Go:
Arrived

Flight Plot

Page will automatically refresh every two minutes.

Flight plan parsing failed; only flown route is shown


Map Options




Map Legend


Flown Route
Filed Route
Departure Airport
Arrival Airport
Navaid (VOR, NDB)
Fix

Horizontal Profiles

Position Reports

Time Latitude Longitude Heading Altitude Ground
Speed
26-Feb-19 13:00 33.933953 -118.388358 172 113ft 0kts
26-Feb-19 13:01 33.933953 -118.388358 172 113ft 0kts
26-Feb-19 13:02 33.933953 -118.388358 0 113ft 0kts
26-Feb-19 13:03 33.933953 -118.388358 172 113ft 0kts
26-Feb-19 13:04 33.933953 -118.388358 172 113ft 0kts
26-Feb-19 13:05 33.933953 -118.388358 172 113ft 0kts
26-Feb-19 13:06 33.933953 -118.388358 172 113ft 0kts
26-Feb-19 13:07 33.933953 -118.388358 172 113ft 0kts
26-Feb-19 13:08 33.933953 -118.388358 172 113ft 0kts
26-Feb-19 13:09 33.933953 -118.388358 172 113ft 0kts
26-Feb-19 13:10 33.933953 -118.388358 172 113ft 0kts
26-Feb-19 13:11 33.933953 -118.388358 172 113ft 0kts
26-Feb-19 13:12 33.933953 -118.388358 172 113ft 0kts
26-Feb-19 13:13 33.933953 -118.388358 172 113ft 0kts
26-Feb-19 13:14 33.933953 -118.388358 172 113ft 0kts
26-Feb-19 13:15 33.933953 -118.388358 172 113ft 0kts
26-Feb-19 13:16 33.933953 -118.388358 172 113ft 0kts
26-Feb-19 13:17 33.933953 -118.388358 172 113ft 0kts
26-Feb-19 13:18 33.933953 -118.388358 172 113ft 0kts
26-Feb-19 13:19 33.933953 -118.388358 172 113ft 0kts
26-Feb-19 13:20 33.933953 -118.388358 172 113ft 0kts
26-Feb-19 13:21 33.933953 -118.388358 172 113ft 0kts
26-Feb-19 13:22 33.934392 -118.388262 210 113ft 2kts
26-Feb-19 13:23 33.934748 -118.387692 258 113ft 2kts
26-Feb-19 13:24 33.934812 -118.387082 263 113ft 0kts
26-Feb-19 13:25 33.934812 -118.387082 263 113ft 0kts
26-Feb-19 13:26 33.934784 -118.387354 263 113ft 3kts
26-Feb-19 13:27 33.935718 -118.386801 84 113ft 7kts
26-Feb-19 13:28 33.935953 -118.384419 83 113ft 7kts
26-Feb-19 13:29 33.936307 -118.382892 22 113ft 6kts
26-Feb-19 13:30 33.936517 -118.391018 263 113ft 103kts
26-Feb-19 13:31 33.931833 -118.443669 270 1795ft 187kts
26-Feb-19 13:32 33.931127 -118.516445 262 4386ft 230kts
26-Feb-19 13:33 33.920803 -118.599337 267 7300ft 275kts
26-Feb-19 13:34 33.917945 -118.680462 275 11284ft 255kts
26-Feb-19 13:35 33.917700 -118.780788 273 12472ft 319kts
26-Feb-19 13:36 33.919132 -118.888542 276 13068ft 323kts
26-Feb-19 13:37 33.922479 -118.995482 279 17138ft 323kts
26-Feb-19 13:38 33.962687 -119.091872 299 20466ft 329kts
26-Feb-19 13:39 34.014393 -119.185477 309 23316ft 347kts
26-Feb-19 13:40 34.094233 -119.256841 316 23604ft 355kts
26-Feb-19 13:41 34.175355 -119.326509 316 25459ft 368kts
26-Feb-19 13:43 34.257780 -119.397681 317 27443ft 383kts
26-Feb-19 13:44 34.345414 -119.473736 317 29236ft 395kts
26-Feb-19 13:45 34.434748 -119.552853 315 31176ft 395kts
26-Feb-19 13:46 34.521955 -119.634207 314 33079ft 392kts
26-Feb-19 13:47 34.606811 -119.715146 314 34624ft 391kts
26-Feb-19 13:48 34.681563 -119.785454 314 34617ft 389kts
26-Feb-19 13:49 34.758125 -119.857826 314 34614ft 389kts
26-Feb-19 13:50 34.820423 -119.917892 308 34038ft 426kts
26-Feb-19 13:51 34.914336 -120.007543 309 34032ft 432kts
26-Feb-19 13:52 34.990488 -120.080417 309 34030ft 435kts
26-Feb-19 13:53 35.086598 -120.172527 310 34023ft 437kts
26-Feb-19 13:54 35.170605 -120.252844 311 34008ft 438kts
26-Feb-19 13:55 35.262694 -120.348897 295 34013ft 414kts
26-Feb-19 13:56 35.325029 -120.466559 292 33999ft 410kts
26-Feb-19 13:57 35.387084 -120.584281 295 33995ft 412kts
26-Feb-19 13:58 35.485882 -120.667848 332 34023ft 470kts
26-Feb-19 13:59 35.603609 -120.727537 321 34014ft 452kts
26-Feb-19 14:00 35.697980 -120.819380 302 34013ft 422kts
26-Feb-19 14:01 35.778704 -120.922836 302 34013ft 423kts
26-Feb-19 14:02 35.860231 -121.028003 302 34014ft 420kts
26-Feb-19 14:02 35.926536 -121.117388 305 33393ft 423kts
26-Feb-19 14:03 36.034072 -121.186431 344 31820ft 457kts
26-Feb-19 14:04 36.153580 -121.127704 46 29787ft 501kts
26-Feb-19 14:06 36.264444 -120.983268 42 26960ft 486kts
26-Feb-19 14:06 36.346127 -120.889537 29 26016ft 471kts
26-Feb-19 14:07 36.460775 -120.883792 319 24454ft 396kts
26-Feb-19 14:08 36.504147 -120.988149 257 22906ft 332kts
26-Feb-19 14:09 36.457617 -121.084504 241 21425ft 327kts
26-Feb-19 14:10 36.410371 -121.181203 237 20315ft 326kts
26-Feb-19 14:11 36.380218 -121.284285 275 19500ft 330kts
26-Feb-19 14:12 36.440422 -121.373394 316 17871ft 352kts
26-Feb-19 14:13 36.520262 -121.443651 325 16446ft 353kts
26-Feb-19 14:14 36.606028 -121.501950 325 15114ft 346kts
26-Feb-19 14:15 36.690086 -121.559180 326 13789ft 340kts
26-Feb-19 14:16 36.772544 -121.615389 325 12468ft 334kts
26-Feb-19 14:17 36.854202 -121.671429 326 11070ft 333kts
26-Feb-19 14:18 36.933596 -121.724572 328 9782ft 319kts
26-Feb-19 14:19 37.009021 -121.776095 328 8969ft 293kts
26-Feb-19 14:20 37.082102 -121.826342 329 8206ft 299kts
26-Feb-19 14:21 37.155611 -121.876758 331 6789ft 300kts
26-Feb-19 14:22 37.228439 -121.926616 331 5445ft 293kts
26-Feb-19 14:23 37.296133 -121.975385 320 4197ft 246kts
26-Feb-19 14:24 37.346666 -122.029833 318 3965ft 227kts
26-Feb-19 14:25 37.392295 -122.080109 318 3321ft 216kts
26-Feb-19 14:26 37.436867 -122.128618 318 2961ft 208kts
26-Feb-19 14:27 37.481505 -122.175120 339 2956ft 208kts
26-Feb-19 14:28 37.517236 -122.139065 112 2972ft 188kts
26-Feb-19 14:29 37.499301 -122.082861 104 2960ft 178kts
26-Feb-19 14:30 37.465862 -122.042554 139 2505ft 156kts
26-Feb-19 14:31 37.434938 -122.009146 139 1714ft 135kts
26-Feb-19 14:32 37.408587 -121.980242 138 1069ft 120kts
26-Feb-19 14:33 37.382380 -121.951607 136 389ft 130kts
26-Feb-19 14:34 37.363219 -121.930479 138 58ft 18kts
26-Feb-19 14:35 37.361470 -121.927334 68 58ft 3kts
26-Feb-19 14:36 37.362988 -121.925137 57 58ft 10kts
26-Feb-19 14:37 37.361691 -121.922944 138 58ft 9kts
26-Feb-19 14:38 37.359557 -121.920600 139 58ft 12kts
26-Feb-19 14:39 37.356950 -121.917724 128 58ft 4kts
26-Feb-19 14:40 37.357431 -121.917063 11 58ft 0kts
26-Feb-19 14:41 37.357431 -121.917063 11 58ft 0kts

Navigation Log

Ident Type
Flight plan parsing failed, navigation log unavailable